sensor_id;sensor_type;location;lat;lon;timestamp;P1;durP1;ratioP1;P2;durP2;ratioP2
73150;SDS011;61354;50.758;6.106;2023-10-08T00:01:15;5.22;;;2.42;;
73150;SDS011;61354;50.758;6.106;2023-10-08T00:03:42;6.05;;;2.63;;
73150;SDS011;61354;50.758;6.106;2023-10-08T00:06:19;6.07;;;2.20;;
73150;SDS011;61354;50.758;6.106;2023-10-08T00:08:49;6.20;;;2.60;;
73150;SDS011;61354;50.758;6.106;2023-10-08T00:11:16;4.97;;;2.40;;
73150;SDS011;61354;50.758;6.106;2023-10-08T00:13:42;5.20;;;2.50;;
73150;SDS011;61354;50.758;6.106;2023-10-08T00:16:12;5.60;;;2.20;;
73150;SDS011;61354;50.758;6.106;2023-10-08T00:18:42;5.93;;;2.50;;
73150;SDS011;61354;50.758;6.106;2023-10-08T00:21:20;4.90;;;2.42;;
73150;SDS011;61354;50.758;6.106;2023-10-08T00:23:53;7.05;;;2.60;;
73150;SDS011;61354;50.758;6.106;2023-10-08T00:26:25;6.95;;;2.85;;
73150;SDS011;61354;50.758;6.106;2023-10-08T00:28:58;7.10;;;2.83;;
73150;SDS011;61354;50.758;6.106;2023-10-08T00:31:25;6.35;;;2.15;;
73150;SDS011;61354;50.758;6.106;2023-10-08T00:33:56;5.65;;;2.35;;
73150;SDS011;61354;50.758;6.106;2023-10-08T00:36:22;8.98;;;2.70;;
73150;SDS011;61354;50.758;6.106;2023-10-08T00:38:49;6.38;;;2.63;;
73150;SDS011;61354;50.758;6.106;2023-10-08T00:41:19;8.65;;;2.40;;
73150;SDS011;61354;50.758;6.106;2023-10-08T00:43:47;5.93;;;2.55;;
73150;SDS011;61354;50.758;6.106;2023-10-08T00:46:14;6.93;;;2.90;;
73150;SDS011;61354;50.758;6.106;2023-10-08T00:48:53;7.18;;;2.88;;
73150;SDS011;61354;50.758;6.106;2023-10-08T00:51:24;4.57;;;2.53;;
73150;SDS011;61354;50.758;6.106;2023-10-08T00:54:05;7.07;;;2.55;;
73150;SDS011;61354;50.758;6.106;2023-10-08T00:56:33;6.40;;;2.65;;
73150;SDS011;61354;50.758;6.106;2023-10-08T00:59:16;5.53;;;2.42;;
73150;SDS011;61354;50.758;6.106;2023-10-08T01:01:42;5.90;;;2.40;;
73150;SDS011;61354;50.758;6.106;2023-10-08T01:04:15;5.78;;;2.50;;
73150;SDS011;61354;50.758;6.106;2023-10-08T01:06:42;5.63;;;2.25;;
73150;SDS011;61354;50.758;6.106;2023-10-08T01:09:07;6.20;;;2.67;;
73150;SDS011;61354;50.758;6.106;2023-10-08T01:12:06;4.85;;;2.38;;
73150;SDS011;61354;50.758;6.106;2023-10-08T01:14:41;6.95;;;2.50;;
73150;SDS011;61354;50.758;6.106;2023-10-08T01:17:11;6.05;;;2.50;;
73150;SDS011;61354;50.758;6.106;2023-10-08T01:19:44;4.75;;;2.30;;
73150;SDS011;61354;50.758;6.106;2023-10-08T01:22:16;6.75;;;2.60;;
73150;SDS011;61354;50.758;6.106;2023-10-08T01:24:47;4.45;;;2.42;;
73150;SDS011;61354;50.758;6.106;2023-10-08T01:27:16;4.72;;;2.10;;
73150;SDS011;61354;50.758;6.106;2023-10-08T01:29:48;6.15;;;2.22;;
73150;SDS011;61354;50.758;6.106;2023-10-08T01:32:17;6.40;;;2.72;;
73150;SDS011;61354;50.758;6.106;2023-10-08T01:34:44;5.30;;;2.65;;
73150;SDS011;61354;50.758;6.106;2023-10-08T01:37:17;4.70;;;2.20;;
73150;SDS011;61354;50.758;6.106;2023-10-08T01:39:46;5.18;;;2.38;;
73150;SDS011;61354;50.758;6.106;2023-10-08T01:42:15;5.95;;;2.60;;
73150;SDS011;61354;50.758;6.106;2023-10-08T01:44:49;6.68;;;2.78;;
73150;SDS011;61354;50.758;6.106;2023-10-08T01:47:20;6.00;;;2.70;;
73150;SDS011;61354;50.758;6.106;2023-10-08T01:49:45;6.88;;;2.60;;
73150;SDS011;61354;50.758;6.106;2023-10-08T01:52:14;7.63;;;2.25;;
73150;SDS011;61354;50.758;6.106;2023-10-08T01:54:47;4.80;;;2.33;;
73150;SDS011;61354;50.758;6.106;2023-10-08T01:57:13;4.88;;;2.65;;
73150;SDS011;61354;50.758;6.106;2023-10-08T01:59:40;5.43;;;2.45;;
73150;SDS011;61354;50.758;6.106;2023-10-08T02:02:06;6.30;;;2.83;;
73150;SDS011;61354;50.758;6.106;2023-10-08T02:04:35;5.45;;;2.30;;
73150;SDS011;61354;50.758;6.106;2023-10-08T02:07:04;6.10;;;2.40;;
73150;SDS011;61354;50.758;6.106;2023-10-08T02:09:33;5.50;;;2.28;;
73150;SDS011;61354;50.758;6.106;2023-10-08T02:11:59;7.88;;;2.75;;
73150;SDS011;61354;50.758;6.106;2023-10-08T02:14:25;8.13;;;2.60;;
73150;SDS011;61354;50.758;6.106;2023-10-08T02:16:51;6.97;;;2.65;;
73150;SDS011;61354;50.758;6.106;2023-10-08T02:19:24;6.93;;;2.55;;
73150;SDS011;61354;50.758;6.106;2023-10-08T02:21:53;5.47;;;2.22;;
73150;SDS011;61354;50.758;6.106;2023-10-08T02:24:20;7.30;;;2.85;;
73150;SDS011;61354;50.758;6.106;2023-10-08T02:26:47;5.55;;;2.47;;
73150;SDS011;61354;50.758;6.106;2023-10-08T02:29:13;6.10;;;2.50;;
73150;SDS011;61354;50.758;6.106;2023-10-08T02:31:39;5.80;;;2.50;;
73150;SDS011;61354;50.758;6.106;2023-10-08T02:34:06;5.45;;;2.60;;
73150;SDS011;61354;50.758;6.106;2023-10-08T02:36:35;5.30;;;2.80;;
73150;SDS011;61354;50.758;6.106;2023-10-08T02:39:02;7.25;;;2.60;;
73150;SDS011;61354;50.758;6.106;2023-10-08T02:41:32;5.82;;;2.50;;
73150;SDS011;61354;50.758;6.106;2023-10-08T02:43:57;7.47;;;2.47;;
73150;SDS011;61354;50.758;6.106;2023-10-08T02:46:24;6.88;;;2.70;;
73150;SDS011;61354;50.758;6.106;2023-10-08T02:48:52;7.53;;;2.42;;
73150;SDS011;61354;50.758;6.106;2023-10-08T02:51:18;9.05;;;3.15;;
73150;SDS011;61354;50.758;6.106;2023-10-08T02:53:46;7.90;;;2.80;;
73150;SDS011;61354;50.758;6.106;2023-10-08T02:56:12;6.72;;;2.60;;
73150;SDS011;61354;50.758;6.106;2023-10-08T02:58:40;8.02;;;2.85;;
73150;SDS011;61354;50.758;6.106;2023-10-08T03:01:06;4.82;;;2.47;;
73150;SDS011;61354;50.758;6.106;2023-10-08T03:03:40;5.85;;;2.47;;
73150;SDS011;61354;50.758;6.106;2023-10-08T03:06:11;5.90;;;2.53;;
73150;SDS011;61354;50.758;6.106;2023-10-08T03:08:40;5.53;;;2.38;;
73150;SDS011;61354;50.758;6.106;2023-10-08T03:11:10;6.40;;;2.80;;
73150;SDS011;61354;50.758;6.106;2023-10-08T03:13:45;6.85;;;2.83;;
73150;SDS011;61354;50.758;6.106;2023-10-08T03:16:18;7.28;;;3.00;;
73150;SDS011;61354;50.758;6.106;2023-10-08T03:18:52;6.88;;;2.63;;
73150;SDS011;61354;50.758;6.106;2023-10-08T03:21:19;6.60;;;2.70;;
73150;SDS011;61354;50.758;6.106;2023-10-08T03:23:48;6.35;;;2.75;;
73150;SDS011;61354;50.758;6.106;2023-10-08T03:26:16;6.43;;;2.67;;
73150;SDS011;61354;50.758;6.106;2023-10-08T03:28:58;6.95;;;2.80;;
73150;SDS011;61354;50.758;6.106;2023-10-08T03:31:25;5.28;;;2.50;;
73150;SDS011;61354;50.758;6.106;2023-10-08T03:34:10;6.88;;;2.60;;
73150;SDS011;61354;50.758;6.106;2023-10-08T03:36:44;6.20;;;2.30;;
73150;SDS011;61354;50.758;6.106;2023-10-08T03:39:11;5.75;;;2.42;;
73150;SDS011;61354;50.758;6.106;2023-10-08T03:41:40;7.55;;;2.60;;
73150;SDS011;61354;50.758;6.106;2023-10-08T03:44:07;6.35;;;2.55;;
73150;SDS011;61354;50.758;6.106;2023-10-08T03:46:39;6.32;;;2.80;;
73150;SDS011;61354;50.758;6.106;2023-10-08T03:49:10;5.50;;;2.80;;
73150;SDS011;61354;50.758;6.106;2023-10-08T03:51:48;5.88;;;2.70;;
73150;SDS011;61354;50.758;6.106;2023-10-08T03:54:17;6.03;;;2.70;;
73150;SDS011;61354;50.758;6.106;2023-10-08T03:57:09;6.82;;;3.00;;
73150;SDS011;61354;50.758;6.106;2023-10-08T03:59:43;4.95;;;2.60;;
73150;SDS011;61354;50.758;6.106;2023-10-08T04:02:08;7.20;;;2.80;;
73150;SDS011;61354;50.758;6.106;2023-10-08T04:04:48;5.70;;;2.50;;
73150;SDS011;61354;50.758;6.106;2023-10-08T04:07:20;6.43;;;2.88;;
73150;SDS011;61354;50.758;6.106;2023-10-08T04:09:50;6.60;;;2.70;;
73150;SDS011;61354;50.758;6.106;2023-10-08T04:12:30;6.95;;;2.35;;
73150;SDS011;61354;50.758;6.106;2023-10-08T04:15:02;5.63;;;2.70;;
73150;SDS011;61354;50.758;6.106;2023-10-08T04:17:36;5.03;;;2.50;;
73150;SDS011;61354;50.758;6.106;2023-10-08T04:20:09;6.15;;;2.70;;
73150;SDS011;61354;50.758;6.106;2023-10-08T04:23:00;6.40;;;2.50;;
73150;SDS011;61354;50.758;6.106;2023-10-08T04:25:29;9.50;;;2.95;;
73150;SDS011;61354;50.758;6.106;2023-10-08T04:27:59;6.78;;;2.55;;
73150;SDS011;61354;50.758;6.106;2023-10-08T04:30:26;4.70;;;2.30;;
73150;SDS011;61354;50.758;6.106;2023-10-08T04:33:04;6.68;;;2.45;;
73150;SDS011;61354;50.758;6.106;2023-10-08T04:35:37;6.88;;;2.85;;
73150;SDS011;61354;50.758;6.106;2023-10-08T04:38:26;5.93;;;3.10;;
73150;SDS011;61354;50.758;6.106;2023-10-08T04:40:53;5.93;;;2.60;;
73150;SDS011;61354;50.758;6.106;2023-10-08T04:43:20;6.05;;;2.55;;
73150;SDS011;61354;50.758;6.106;2023-10-08T04:45:53;5.47;;;2.72;;
73150;SDS011;61354;50.758;6.106;2023-10-08T04:48:22;7.85;;;2.60;;
73150;SDS011;61354;50.758;6.106;2023-10-08T04:50:49;7.85;;;3.03;;
73150;SDS011;61354;50.758;6.106;2023-10-08T04:53:33;5.40;;;2.55;;
73150;SDS011;61354;50.758;6.106;2023-10-08T04:56:10;6.20;;;2.95;;
73150;SDS011;61354;50.758;6.106;2023-10-08T04:58:45;7.55;;;2.90;;
73150;SDS011;61354;50.758;6.106;2023-10-08T05:01:14;5.55;;;2.72;;
73150;SDS011;61354;50.758;6.106;2023-10-08T05:03:44;7.28;;;2.70;;
73150;SDS011;61354;50.758;6.106;2023-10-08T05:06:31;7.72;;;2.80;;
73150;SDS011;61354;50.758;6.106;2023-10-08T05:09:04;6.63;;;2.58;;
73150;SDS011;61354;50.758;6.106;2023-10-08T05:11:37;6.15;;;2.75;;
73150;SDS011;61354;50.758;6.106;2023-10-08T05:14:22;5.55;;;2.58;;
73150;SDS011;61354;50.758;6.106;2023-10-08T05:16:58;6.07;;;2.45;;
73150;SDS011;61354;50.758;6.106;2023-10-08T05:19:47;5.53;;;2.20;;
73150;SDS011;61354;50.758;6.106;2023-10-08T05:22:21;9.00;;;2.70;;
73150;SDS011;61354;50.758;6.106;2023-10-08T05:24:48;5.88;;;2.72;;
73150;SDS011;61354;50.758;6.106;2023-10-08T05:27:36;6.30;;;2.67;;
73150;SDS011;61354;50.758;6.106;2023-10-08T05:30:22;6.95;;;2.45;;
73150;SDS011;61354;50.758;6.106;2023-10-08T05:32:52;5.95;;;2.60;;
73150;SDS011;61354;50.758;6.106;2023-10-08T05:35:37;6.00;;;2.35;;
73150;SDS011;61354;50.758;6.106;2023-10-08T05:38:09;4.95;;;2.30;;
73150;SDS011;61354;50.758;6.106;2023-10-08T05:40:42;5.38;;;2.60;;
73150;SDS011;61354;50.758;6.106;2023-10-08T05:43:27;6.95;;;3.17;;
73150;SDS011;61354;50.758;6.106;2023-10-08T05:46:10;5.97;;;2.42;;
73150;SDS011;61354;50.758;6.106;2023-10-08T05:51:27;6.85;;;2.50;;
73150;SDS011;61354;50.758;6.106;2023-10-08T05:54:12;8.07;;;2.80;;
73150;SDS011;61354;50.758;6.106;2023-10-08T06:02:27;7.60;;;2.60;;
73150;SDS011;61354;50.758;6.106;2023-10-08T06:05:04;5.93;;;2.60;;
73150;SDS011;61354;50.758;6.106;2023-10-08T06:07:45;5.70;;;2.47;;
73150;SDS011;61354;50.758;6.106;2023-10-08T06:10:21;6.47;;;2.40;;
73150;SDS011;61354;50.758;6.106;2023-10-08T06:15:28;6.78;;;2.90;;
73150;SDS011;61354;50.758;6.106;2023-10-08T06:18:10;7.43;;;2.90;;
73150;SDS011;61354;50.758;6.106;2023-10-08T06:20:36;5.90;;;2.80;;
73150;SDS011;61354;50.758;6.106;2023-10-08T06:23:04;5.45;;;2.22;;
73150;SDS011;61354;50.758;6.106;2023-10-08T06:25:32;6.20;;;2.50;;
73150;SDS011;61354;50.758;6.106;2023-10-08T06:28:10;6.18;;;2.58;;
73150;SDS011;61354;50.758;6.106;2023-10-08T06:30:41;5.13;;;2.38;;
73150;SDS011;61354;50.758;6.106;2023-10-08T06:33:07;8.20;;;3.10;;
73150;SDS011;61354;50.758;6.106;2023-10-08T06:35:33;6.43;;;2.83;;
73150;SDS011;61354;50.758;6.106;2023-10-08T06:37:59;6.88;;;2.90;;
73150;SDS011;61354;50.758;6.106;2023-10-08T06:40:26;7.00;;;2.83;;
73150;SDS011;61354;50.758;6.106;2023-10-08T06:43:18;6.78;;;2.80;;
73150;SDS011;61354;50.758;6.106;2023-10-08T06:45:50;5.07;;;2.65;;
73150;SDS011;61354;50.758;6.106;2023-10-08T06:48:19;6.65;;;2.63;;
73150;SDS011;61354;50.758;6.106;2023-10-08T06:50:46;8.77;;;3.17;;
73150;SDS011;61354;50.758;6.106;2023-10-08T06:53:15;5.60;;;2.50;;
73150;SDS011;61354;50.758;6.106;2023-10-08T06:58:13;6.45;;;2.53;;
73150;SDS011;61354;50.758;6.106;2023-10-08T07:00:40;6.13;;;2.53;;
73150;SDS011;61354;50.758;6.106;2023-10-08T07:03:12;5.47;;;3.00;;
73150;SDS011;61354;50.758;6.106;2023-10-08T07:05:43;7.22;;;3.20;;
73150;SDS011;61354;50.758;6.106;2023-10-08T07:08:22;4.80;;;2.58;;
73150;SDS011;61354;50.758;6.106;2023-10-08T07:10:50;5.55;;;2.65;;
73150;SDS011;61354;50.758;6.106;2023-10-08T07:13:16;5.07;;;2.63;;
73150;SDS011;61354;50.758;6.106;2023-10-08T07:15:50;6.28;;;2.60;;
73150;SDS011;61354;50.758;6.106;2023-10-08T07:18:16;5.50;;;2.70;;
73150;SDS011;61354;50.758;6.106;2023-10-08T07:20:55;7.55;;;2.67;;
73150;SDS011;61354;50.758;6.106;2023-10-08T07:23:26;6.43;;;2.80;;
73150;SDS011;61354;50.758;6.106;2023-10-08T07:26:00;5.10;;;2.65;;
73150;SDS011;61354;50.758;6.106;2023-10-08T07:28:37;8.18;;;2.88;;
73150;SDS011;61354;50.758;6.106;2023-10-08T07:31:16;7.43;;;2.92;;
73150;SDS011;61354;50.758;6.106;2023-10-08T07:33:46;6.18;;;2.53;;
73150;SDS011;61354;50.758;6.106;2023-10-08T07:36:19;6.68;;;2.63;;
73150;SDS011;61354;50.758;6.106;2023-10-08T07:38:45;5.68;;;2.85;;
73150;SDS011;61354;50.758;6.106;2023-10-08T07:41:12;5.22;;;2.70;;
73150;SDS011;61354;50.758;6.106;2023-10-08T07:43:40;8.52;;;2.72;;
73150;SDS011;61354;50.758;6.106;2023-10-08T07:46:07;5.97;;;2.63;;
73150;SDS011;61354;50.758;6.106;2023-10-08T07:48:34;7.88;;;2.78;;
73150;SDS011;61354;50.758;6.106;2023-10-08T07:51:00;5.57;;;2.78;;
73150;SDS011;61354;50.758;6.106;2023-10-08T07:53:27;6.53;;;2.75;;
73150;SDS011;61354;50.758;6.106;2023-10-08T07:56:03;7.93;;;2.70;;
73150;SDS011;61354;50.758;6.106;2023-10-08T07:58:35;5.43;;;2.95;;
73150;SDS011;61354;50.758;6.106;2023-10-08T08:01:07;5.82;;;2.53;;
73150;SDS011;61354;50.758;6.106;2023-10-08T08:03:34;6.00;;;2.88;;
73150;SDS011;61354;50.758;6.106;2023-10-08T08:06:08;6.25;;;2.80;;
73150;SDS011;61354;50.758;6.106;2023-10-08T08:08:34;6.07;;;3.03;;
73150;SDS011;61354;50.758;6.106;2023-10-08T08:11:02;6.30;;;2.42;;
73150;SDS011;61354;50.758;6.106;2023-10-08T08:13:37;7.63;;;2.78;;
73150;SDS011;61354;50.758;6.106;2023-10-08T08:16:04;5.72;;;2.67;;
73150;SDS011;61354;50.758;6.106;2023-10-08T08:19:00;5.65;;;2.85;;
73150;SDS011;61354;50.758;6.106;2023-10-08T08:21:25;6.78;;;2.85;;
73150;SDS011;61354;50.758;6.106;2023-10-08T08:23:51;7.25;;;3.13;;
73150;SDS011;61354;50.758;6.106;2023-10-08T08:26:24;7.75;;;3.80;;
73150;SDS011;61354;50.758;6.106;2023-10-08T08:29:02;7.53;;;3.08;;
73150;SDS011;61354;50.758;6.106;2023-10-08T08:31:28;8.63;;;3.88;;
73150;SDS011;61354;50.758;6.106;2023-10-08T08:34:00;6.40;;;2.80;;
73150;SDS011;61354;50.758;6.106;2023-10-08T08:36:35;6.43;;;3.42;;
73150;SDS011;61354;50.758;6.106;2023-10-08T08:39:04;6.05;;;2.83;;
73150;SDS011;61354;50.758;6.106;2023-10-08T08:41:36;6.70;;;3.30;;
73150;SDS011;61354;50.758;6.106;2023-10-08T08:44:02;7.72;;;3.55;;
73150;SDS011;61354;50.758;6.106;2023-10-08T08:46:32;8.25;;;2.85;;
73150;SDS011;61354;50.758;6.106;2023-10-08T08:49:06;7.20;;;3.15;;
73150;SDS011;61354;50.758;6.106;2023-10-08T08:51:37;9.50;;;3.08;;
73150;SDS011;61354;50.758;6.106;2023-10-08T08:54:03;8.80;;;3.35;;
73150;SDS011;61354;50.758;6.106;2023-10-08T08:56:33;6.60;;;2.80;;
73150;SDS011;61354;50.758;6.106;2023-10-08T09:01:26;8.02;;;2.85;;
73150;SDS011;61354;50.758;6.106;2023-10-08T09:03:58;6.88;;;3.00;;
73150;SDS011;61354;50.758;6.106;2023-10-08T09:06:26;7.38;;;2.97;;
73150;SDS011;61354;50.758;6.106;2023-10-08T09:08:52;9.48;;;3.58;;
73150;SDS011;61354;50.758;6.106;2023-10-08T09:11:21;6.22;;;3.05;;
73150;SDS011;61354;50.758;6.106;2023-10-08T09:13:47;9.15;;;3.35;;
73150;SDS011;61354;50.758;6.106;2023-10-08T09:18:58;5.90;;;3.10;;
73150;SDS011;61354;50.758;6.106;2023-10-08T09:21:23;6.70;;;3.20;;
73150;SDS011;61354;50.758;6.106;2023-10-08T09:23:49;10.07;;;3.50;;
73150;SDS011;61354;50.758;6.106;2023-10-08T09:26:16;8.25;;;3.63;;
73150;SDS011;61354;50.758;6.106;2023-10-08T09:28:46;6.60;;;2.97;;
73150;SDS011;61354;50.758;6.106;2023-10-08T09:31:14;9.02;;;2.95;;
73150;SDS011;61354;50.758;6.106;2023-10-08T09:33:40;7.35;;;3.15;;
73150;SDS011;61354;50.758;6.106;2023-10-08T09:36:07;9.45;;;4.57;;
73150;SDS011;61354;50.758;6.106;2023-10-08T09:38:36;9.10;;;3.33;;
73150;SDS011;61354;50.758;6.106;2023-10-08T09:41:03;9.88;;;3.72;;
73150;SDS011;61354;50.758;6.106;2023-10-08T09:43:29;8.05;;;3.22;;
73150;SDS011;61354;50.758;6.106;2023-10-08T09:46:03;7.75;;;3.08;;
73150;SDS011;61354;50.758;6.106;2023-10-08T09:48:51;7.53;;;3.10;;
73150;SDS011;61354;50.758;6.106;2023-10-08T09:51:18;7.80;;;3.40;;
73150;SDS011;61354;50.758;6.106;2023-10-08T09:53:52;8.43;;;3.30;;
73150;SDS011;61354;50.758;6.106;2023-10-08T09:56:25;8.30;;;3.63;;
73150;SDS011;61354;50.758;6.106;2023-10-08T09:58:54;7.50;;;3.22;;
73150;SDS011;61354;50.758;6.106;2023-10-08T10:01:20;8.40;;;2.92;;
73150;SDS011;61354;50.758;6.106;2023-10-08T10:03:47;8.05;;;3.42;;
73150;SDS011;61354;50.758;6.106;2023-10-08T10:06:14;8.52;;;3.53;;
73150;SDS011;61354;50.758;6.106;2023-10-08T10:08:43;10.02;;;3.40;;
73150;SDS011;61354;50.758;6.106;2023-10-08T10:11:09;8.02;;;3.53;;
73150;SDS011;61354;50.758;6.106;2023-10-08T10:13:42;8.55;;;3.67;;
73150;SDS011;61354;50.758;6.106;2023-10-08T10:16:21;8.25;;;3.33;;
73150;SDS011;61354;50.758;6.106;2023-10-08T10:18:50;8.80;;;3.75;;
73150;SDS011;61354;50.758;6.106;2023-10-08T10:23:41;8.55;;;3.75;;
73150;SDS011;61354;50.758;6.106;2023-10-08T10:26:24;10.38;;;4.05;;
73150;SDS011;61354;50.758;6.106;2023-10-08T10:31:41;9.18;;;3.92;;
73150;SDS011;61354;50.758;6.106;2023-10-08T10:34:15;9.38;;;3.90;;
73150;SDS011;61354;50.758;6.106;2023-10-08T10:36:46;10.32;;;4.40;;
73150;SDS011;61354;50.758;6.106;2023-10-08T10:39:14;8.73;;;3.67;;
73150;SDS011;61354;50.758;6.106;2023-10-08T10:41:51;7.45;;;3.35;;
73150;SDS011;61354;50.758;6.106;2023-10-08T10:44:23;9.02;;;3.38;;
73150;SDS011;61354;50.758;6.106;2023-10-08T10:46:50;7.32;;;3.33;;
73150;SDS011;61354;50.758;6.106;2023-10-08T10:49:48;9.60;;;3.55;;
73150;SDS011;61354;50.758;6.106;2023-10-08T10:52:25;6.68;;;3.15;;
73150;SDS011;61354;50.758;6.106;2023-10-08T10:55:05;10.32;;;3.60;;
73150;SDS011;61354;50.758;6.106;2023-10-08T10:57:52;6.35;;;3.42;;
73150;SDS011;61354;50.758;6.106;2023-10-08T11:00:29;12.13;;;3.72;;
73150;SDS011;61354;50.758;6.106;2023-10-08T11:02:59;7.57;;;3.17;;
73150;SDS011;61354;50.758;6.106;2023-10-08T11:05:29;7.40;;;2.75;;
73150;SDS011;61354;50.758;6.106;2023-10-08T11:07:56;9.05;;;4.05;;
73150;SDS011;61354;50.758;6.106;2023-10-08T11:10:31;10.23;;;4.00;;
73150;SDS011;61354;50.758;6.106;2023-10-08T11:12:57;8.07;;;3.50;;
73150;SDS011;61354;50.758;6.106;2023-10-08T11:15:29;8.95;;;3.47;;
73150;SDS011;61354;50.758;6.106;2023-10-08T11:18:12;7.63;;;3.33;;
73150;SDS011;61354;50.758;6.106;2023-10-08T11:20:42;9.25;;;3.55;;
73150;SDS011;61354;50.758;6.106;2023-10-08T11:23:10;8.32;;;2.70;;
73150;SDS011;61354;50.758;6.106;2023-10-08T11:25:54;7.15;;;2.83;;
73150;SDS011;61354;50.758;6.106;2023-10-08T11:31:00;9.30;;;3.10;;
73150;SDS011;61354;50.758;6.106;2023-10-08T11:33:36;11.02;;;3.20;;
73150;SDS011;61354;50.758;6.106;2023-10-08T11:36:06;10.60;;;3.28;;
73150;SDS011;61354;50.758;6.106;2023-10-08T11:38:46;8.73;;;3.22;;
73150;SDS011;61354;50.758;6.106;2023-10-08T11:41:16;7.22;;;3.17;;
73150;SDS011;61354;50.758;6.106;2023-10-08T11:43:49;9.13;;;3.35;;
73150;SDS011;61354;50.758;6.106;2023-10-08T11:48:51;10.10;;;3.05;;
73150;SDS011;61354;50.758;6.106;2023-10-08T11:51:17;8.35;;;3.42;;
73150;SDS011;61354;50.758;6.106;2023-10-08T11:53:46;7.07;;;3.13;;
73150;SDS011;61354;50.758;6.106;2023-10-08T11:56:11;6.80;;;3.70;;
73150;SDS011;61354;50.758;6.106;2023-10-08T11:58:40;7.65;;;2.80;;
73150;SDS011;61354;50.758;6.106;2023-10-08T12:01:12;8.77;;;3.42;;
73150;SDS011;61354;50.758;6.106;2023-10-08T12:03:47;8.30;;;3.03;;
73150;SDS011;61354;50.758;6.106;2023-10-08T12:06:15;8.68;;;3.75;;
73150;SDS011;61354;50.758;6.106;2023-10-08T12:08:47;8.35;;;3.25;;
73150;SDS011;61354;50.758;6.106;2023-10-08T12:11:18;8.65;;;3.10;;
73150;SDS011;61354;50.758;6.106;2023-10-08T12:13:45;9.48;;;3.35;;
73150;SDS011;61354;50.758;6.106;2023-10-08T12:16:11;8.20;;;3.40;;
73150;SDS011;61354;50.758;6.106;2023-10-08T12:18:55;9.63;;;3.70;;
73150;SDS011;61354;50.758;6.106;2023-10-08T12:21:25;7.15;;;3.47;;
73150;SDS011;61354;50.758;6.106;2023-10-08T12:23:54;8.68;;;3.55;;
73150;SDS011;61354;50.758;6.106;2023-10-08T12:26:22;8.73;;;3.60;;
73150;SDS011;61354;50.758;6.106;2023-10-08T12:28:48;7.80;;;3.22;;
73150;SDS011;61354;50.758;6.106;2023-10-08T12:31:17;7.40;;;3.08;;
73150;SDS011;61354;50.758;6.106;2023-10-08T12:33:48;7.57;;;4.22;;
73150;SDS011;61354;50.758;6.106;2023-10-08T12:36:14;6.68;;;2.92;;
73150;SDS011;61354;50.758;6.106;2023-10-08T12:38:42;7.88;;;3.40;;
73150;SDS011;61354;50.758;6.106;2023-10-08T12:41:12;6.85;;;2.90;;
73150;SDS011;61354;50.758;6.106;2023-10-08T12:43:38;10.77;;;3.20;;
73150;SDS011;61354;50.758;6.106;2023-10-08T12:46:04;11.07;;;3.95;;
73150;SDS011;61354;50.758;6.106;2023-10-08T12:48:36;8.30;;;3.50;;
73150;SDS011;61354;50.758;6.106;2023-10-08T12:51:02;8.38;;;2.80;;
73150;SDS011;61354;50.758;6.106;2023-10-08T12:53:30;7.93;;;3.42;;
73150;SDS011;61354;50.758;6.106;2023-10-08T12:55:59;8.50;;;3.22;;
73150;SDS011;61354;50.758;6.106;2023-10-08T12:58:31;11.10;;;4.05;;
73150;SDS011;61354;50.758;6.106;2023-10-08T13:01:04;7.90;;;3.08;;
73150;SDS011;61354;50.758;6.106;2023-10-08T13:03:35;7.82;;;2.80;;
73150;SDS011;61354;50.758;6.106;2023-10-08T13:06:07;11.07;;;3.60;;
73150;SDS011;61354;50.758;6.106;2023-10-08T13:08:36;7.43;;;3.05;;
73150;SDS011;61354;50.758;6.106;2023-10-08T13:11:02;9.55;;;3.00;;
73150;SDS011;61354;50.758;6.106;2023-10-08T13:13:32;9.02;;;3.10;;
73150;SDS011;61354;50.758;6.106;2023-10-08T13:15:59;10.82;;;4.00;;
73150;SDS011;61354;50.758;6.106;2023-10-08T13:18:29;6.90;;;2.90;;
73150;SDS011;61354;50.758;6.106;2023-10-08T13:20:55;7.57;;;2.97;;
73150;SDS011;61354;50.758;6.106;2023-10-08T13:23:20;8.52;;;3.00;;
73150;SDS011;61354;50.758;6.106;2023-10-08T13:25:51;7.03;;;2.90;;
73150;SDS011;61354;50.758;6.106;2023-10-08T13:28:21;7.85;;;3.30;;
73150;SDS011;61354;50.758;6.106;2023-10-08T13:30:48;7.03;;;3.10;;
73150;SDS011;61354;50.758;6.106;2023-10-08T13:33:18;9.38;;;3.28;;
73150;SDS011;61354;50.758;6.106;2023-10-08T13:35:45;10.43;;;3.53;;
73150;SDS011;61354;50.758;6.106;2023-10-08T13:38:10;9.10;;;3.28;;
73150;SDS011;61354;50.758;6.106;2023-10-08T13:40:38;9.40;;;2.95;;
73150;SDS011;61354;50.758;6.106;2023-10-08T13:43:08;7.72;;;2.83;;
73150;SDS011;61354;50.758;6.106;2023-10-08T13:45:37;8.60;;;3.75;;
73150;SDS011;61354;50.758;6.106;2023-10-08T13:48:05;9.20;;;3.22;;
73150;SDS011;61354;50.758;6.106;2023-10-08T13:50:31;6.45;;;2.63;;
73150;SDS011;61354;50.758;6.106;2023-10-08T13:52:57;9.77;;;3.50;;
73150;SDS011;61354;50.758;6.106;2023-10-08T13:55:23;7.72;;;3.08;;
73150;SDS011;61354;50.758;6.106;2023-10-08T13:57:51;10.32;;;3.70;;
73150;SDS011;61354;50.758;6.106;2023-10-08T14:00:16;9.77;;;3.30;;
73150;SDS011;61354;50.758;6.106;2023-10-08T14:02:50;8.20;;;3.40;;
73150;SDS011;61354;50.758;6.106;2023-10-08T14:05:19;11.57;;;3.80;;
73150;SDS011;61354;50.758;6.106;2023-10-08T14:07:50;7.60;;;3.13;;
73150;SDS011;61354;50.758;6.106;2023-10-08T14:10:18;7.90;;;2.90;;
73150;SDS011;61354;50.758;6.106;2023-10-08T14:12:46;11.18;;;3.78;;
73150;SDS011;61354;50.758;6.106;2023-10-08T14:15:15;10.15;;;3.83;;
73150;SDS011;61354;50.758;6.106;2023-10-08T14:22:47;8.60;;;2.80;;
73150;SDS011;61354;50.758;6.106;2023-10-08T14:25:25;10.35;;;3.22;;
73150;SDS011;61354;50.758;6.106;2023-10-08T14:27:53;6.72;;;3.08;;
73150;SDS011;61354;50.758;6.106;2023-10-08T14:30:19;7.72;;;3.25;;
73150;SDS011;61354;50.758;6.106;2023-10-08T14:32:49;9.15;;;3.13;;
73150;SDS011;61354;50.758;6.106;2023-10-08T14:35:15;11.18;;;4.20;;
73150;SDS011;61354;50.758;6.106;2023-10-08T14:38:00;7.00;;;2.72;;
73150;SDS011;61354;50.758;6.106;2023-10-08T14:40:45;7.95;;;3.03;;
73150;SDS011;61354;50.758;6.106;2023-10-08T14:43:30;12.25;;;3.70;;
73150;SDS011;61354;50.758;6.106;2023-10-08T14:46:02;9.60;;;3.80;;
73150;SDS011;61354;50.758;6.106;2023-10-08T14:48:31;10.27;;;3.60;;
73150;SDS011;61354;50.758;6.106;2023-10-08T14:51:01;8.25;;;3.30;;
73150;SDS011;61354;50.758;6.106;2023-10-08T14:53:28;8.82;;;4.40;;
73150;SDS011;61354;50.758;6.106;2023-10-08T14:55:56;7.47;;;3.35;;
73150;SDS011;61354;50.758;6.106;2023-10-08T14:58:22;6.93;;;3.17;;
73150;SDS011;61354;50.758;6.106;2023-10-08T15:00:50;10.65;;;3.63;;
73150;SDS011;61354;50.758;6.106;2023-10-08T15:03:19;8.75;;;3.58;;
73150;SDS011;61354;50.758;6.106;2023-10-08T15:05:46;7.57;;;2.58;;
73150;SDS011;61354;50.758;6.106;2023-10-08T15:08:12;6.93;;;2.95;;
73150;SDS011;61354;50.758;6.106;2023-10-08T15:10:40;8.73;;;3.40;;
73150;SDS011;61354;50.758;6.106;2023-10-08T15:13:08;9.20;;;3.40;;
73150;SDS011;61354;50.758;6.106;2023-10-08T15:15:34;12.25;;;3.22;;
73150;SDS011;61354;50.758;6.106;2023-10-08T15:18:00;7.03;;;2.97;;
73150;SDS011;61354;50.758;6.106;2023-10-08T15:20:31;11.00;;;3.25;;
73150;SDS011;61354;50.758;6.106;2023-10-08T15:22:58;8.70;;;2.92;;
73150;SDS011;61354;50.758;6.106;2023-10-08T15:25:25;8.48;;;2.97;;
73150;SDS011;61354;50.758;6.106;2023-10-08T15:27:50;6.72;;;3.13;;
73150;SDS011;61354;50.758;6.106;2023-10-08T15:30:17;8.73;;;3.35;;
73150;SDS011;61354;50.758;6.106;2023-10-08T15:32:45;9.52;;;3.08;;
73150;SDS011;61354;50.758;6.106;2023-10-08T15:35:14;8.60;;;3.08;;
73150;SDS011;61354;50.758;6.106;2023-10-08T15:37:45;7.03;;;3.05;;
73150;SDS011;61354;50.758;6.106;2023-10-08T15:40:13;8.13;;;2.83;;
73150;SDS011;61354;50.758;6.106;2023-10-08T15:42:43;10.95;;;3.20;;